createdAt,value
2017-12-25T00:00:51.523Z,101.38
2017-12-25T00:03:18.553Z,99.35
2017-12-25T00:05:45.068Z,98.60
2017-12-25T00:08:11.851Z,99.70
2017-12-25T00:10:38.825Z,98.62
2017-12-25T00:13:05.102Z,100.20
2017-12-25T00:15:31.910Z,96.70
2017-12-25T00:17:59.175Z,98.05
2017-12-25T00:20:25.483Z,102.12
2017-12-25T00:22:51.811Z,99.28
2017-12-25T00:25:18.812Z,100.53
2017-12-25T00:27:45.588Z,102.50
2017-12-25T00:30:12.580Z,98.20
2017-12-25T00:32:38.832Z,101.90
2017-12-25T00:35:05.052Z,100.95
2017-12-25T00:37:31.375Z,101.82
2017-12-25T00:39:58.148Z,103.47
2017-12-25T00:42:24.703Z,103.45
2017-12-25T00:44:51.632Z,100.32
2017-12-25T00:47:17.915Z,100.20
2017-12-25T00:49:45.141Z,100.32
2017-12-25T00:52:11.416Z,98.05
2017-12-25T00:54:38.200Z,99.37
2017-12-25T00:57:05.414Z,98.22
2017-12-25T00:59:33.385Z,100.12
2017-12-25T01:02:00.930Z,99.65
2017-12-25T01:04:27.152Z,101.12
2017-12-25T01:06:54.359Z,99.47
2017-12-25T01:09:21.450Z,100.50
2017-12-25T01:11:47.793Z,101.07
2017-12-25T01:14:14.020Z,101.20
2017-12-25T01:16:40.291Z,97.62
2017-12-25T01:19:07.250Z,96.45
2017-12-25T01:21:33.488Z,96.80
2017-12-25T01:24:00.305Z,96.68
2017-12-25T01:26:27.237Z,93.75
2017-12-25T01:28:54.143Z,96.47
2017-12-25T01:31:20.335Z,99.40
2017-12-25T01:33:46.574Z,95.53
2017-12-25T01:36:12.829Z,95.97
2017-12-25T01:38:39.057Z,96.50
2017-12-25T01:41:05.974Z,96.53
2017-12-25T01:43:33.365Z,96.85
2017-12-25T01:45:59.597Z,95.40
2017-12-25T01:48:25.924Z,97.35
2017-12-25T01:50:52.239Z,97.88
2017-12-25T01:53:18.752Z,95.53
2017-12-25T01:55:46.426Z,93.20
2017-12-25T01:58:16.100Z,95.40
2017-12-25T02:00:44.810Z,96.05
2017-12-25T02:03:11.086Z,97.85
2017-12-25T02:05:48.588Z,97.50
2017-12-25T02:11:12.205Z,196.65
2017-12-25T02:13:38.980Z,100.43
2017-12-25T02:16:05.265Z,101.00
2017-12-25T02:18:32.767Z,95.62
2017-12-25T02:20:59.981Z,94.40
2017-12-25T02:23:26.484Z,94.68
2017-12-25T02:25:54.066Z,95.57
2017-12-25T02:28:21.580Z,93.90
2017-12-25T02:30:48.042Z,94.95
2017-12-25T02:33:14.988Z,94.25
2017-12-25T02:35:41.955Z,94.72
2017-12-25T02:38:09.023Z,93.45
2017-12-25T02:40:36.037Z,92.50
2017-12-25T02:43:03.059Z,97.15
2017-12-25T02:45:30.302Z,92.68
2017-12-25T02:47:56.785Z,95.05
2017-12-25T02:50:24.510Z,93.05
2017-12-25T02:52:51.675Z,95.30
2017-12-25T02:55:19.170Z,93.90
2017-12-25T02:57:45.566Z,95.75
2017-12-25T03:00:12.619Z,96.07
2017-12-25T03:02:39.575Z,96.70
2017-12-25T03:05:05.858Z,96.32
2017-12-25T03:07:32.624Z,96.60
2017-12-25T03:09:59.588Z,93.57
2017-12-25T03:12:26.453Z,93.68
2017-12-25T03:14:52.656Z,96.00
2017-12-25T03:17:18.880Z,94.93
2017-12-25T03:19:45.766Z,93.50
2017-12-25T03:22:12.780Z,93.85
2017-12-25T03:24:39.013Z,95.28
2017-12-25T03:27:05.404Z,97.18
2017-12-25T03:29:32.228Z,91.03
2017-12-25T03:31:59.480Z,96.47
2017-12-25T03:34:26.433Z,88.65
2017-12-25T03:36:53.432Z,94.20
2017-12-25T03:39:20.273Z,95.25
2017-12-25T03:41:47.013Z,92.55
2017-12-25T03:44:13.373Z,94.45
2017-12-25T03:46:41.476Z,91.35
2017-12-25T03:49:07.686Z,95.32
2017-12-25T03:51:34.564Z,92.62
2017-12-25T03:54:02.005Z,92.70
2017-12-25T03:56:28.772Z,95.30
2017-12-25T03:58:54.996Z,92.15
2017-12-25T04:01:21.202Z,93.72
2017-12-25T04:03:48.845Z,90.20
2017-12-25T04:06:15.398Z,92.65
2017-12-25T04:08:42.364Z,93.12
2017-12-25T04:11:09.355Z,94.10
2017-12-25T04:13:35.541Z,94.97
2017-12-25T04:16:01.771Z,95.45
2017-12-25T04:18:28.499Z,94.87
2017-12-25T04:20:55.479Z,99.20
2017-12-25T04:23:21.758Z,96.45
2017-12-25T04:25:49.377Z,95.10
2017-12-25T04:28:15.579Z,95.90
2017-12-25T04:30:41.837Z,95.38
2017-12-25T04:33:08.676Z,95.15
2017-12-25T04:35:35.177Z,95.20
2017-12-25T04:38:02.590Z,96.32
2017-12-25T04:40:29.404Z,95.25
2017-12-25T04:42:56.120Z,94.43
2017-12-25T04:45:22.535Z,94.87
2017-12-25T04:47:49.970Z,97.07
2017-12-25T04:50:16.945Z,95.25
2017-12-25T04:52:44.221Z,97.55
2017-12-25T04:55:10.471Z,94.93
2017-12-25T04:57:37.581Z,95.05
2017-12-25T05:00:03.927Z,94.95
2017-12-25T05:02:30.724Z,94.10
2017-12-25T05:04:57.814Z,94.85
2017-12-25T05:07:24.243Z,95.55
2017-12-25T05:09:50.702Z,95.62
2017-12-25T05:12:17.572Z,95.20
2017-12-25T05:14:45.191Z,93.05
2017-12-25T05:17:11.634Z,92.80
2017-12-25T05:19:37.937Z,96.28
2017-12-25T05:22:04.232Z,92.32
2017-12-25T05:24:31.838Z,93.10
2017-12-25T05:26:58.517Z,94.87
2017-12-25T05:29:25.991Z,95.47
2017-12-25T05:31:52.961Z,94.28
2017-12-25T05:34:19.209Z,93.20
2017-12-25T05:36:45.975Z,94.22
2017-12-25T05:39:13.258Z,90.78
2017-12-25T05:41:40.542Z,93.85
2017-12-25T05:44:07.583Z,94.47
2017-12-25T05:46:33.849Z,94.05
2017-12-25T05:49:01.051Z,90.65
2017-12-25T05:51:27.794Z,93.25
2017-12-25T06:03:39.428Z,92.25
2017-12-25T06:06:06.745Z,94.05
2017-12-25T06:08:33.751Z,93.40
2017-12-25T06:10:59.959Z,90.35
2017-12-25T06:13:27.575Z,93.40
2017-12-25T06:15:53.766Z,91.63
2017-12-25T06:18:20.656Z,93.95
2017-12-25T06:20:47.305Z,91.50
2017-12-25T06:23:13.647Z,94.75
2017-12-25T06:25:40.642Z,95.32
2017-12-25T06:28:06.844Z,93.28
2017-12-25T06:30:33.565Z,93.62
2017-12-25T06:33:01.086Z,93.22
2017-12-25T06:35:27.876Z,91.60
2017-12-25T06:37:54.645Z,92.32
2017-12-25T06:40:20.875Z,93.05
2017-12-25T06:42:48.075Z,94.35
2017-12-25T06:45:15.043Z,92.93
2017-12-25T06:47:41.909Z,90.40
2017-12-25T06:50:09.126Z,93.25
2017-12-25T06:52:36.627Z,91.05
2017-12-25T06:55:02.995Z,92.82
2017-12-25T06:57:29.476Z,92.37
2017-12-25T06:59:56.200Z,93.28
2017-12-25T07:02:24.037Z,90.07
2017-12-25T07:04:50.297Z,93.70
2017-12-25T07:07:16.718Z,92.88
2017-12-25T07:09:44.363Z,92.60
2017-12-25T07:12:11.570Z,94.62
2017-12-25T07:14:39.654Z,93.70
2017-12-25T07:17:06.359Z,95.45
2017-12-25T07:19:32.622Z,91.93
2017-12-25T07:21:58.815Z,92.25
2017-12-25T07:24:25.080Z,92.47
2017-12-25T07:26:51.342Z,90.25
2017-12-25T07:29:18.316Z,89.68
2017-12-25T07:31:45.017Z,88.57
2017-12-25T07:34:12.151Z,89.07
2017-12-25T07:36:39.223Z,89.68
2017-12-25T07:39:06.491Z,88.93
2017-12-25T07:41:33.087Z,92.53
2017-12-25T07:44:00.935Z,89.60
2017-12-25T07:46:27.162Z,195.82
2017-12-25T07:48:53.567Z,94.70
2017-12-25T07:51:20.379Z,92.95
2017-12-25T07:53:47.893Z,94.28
2017-12-25T07:56:14.687Z,92.35
2017-12-25T07:58:41.668Z,191.65
2017-12-25T08:01:08.019Z,95.95
2017-12-25T08:03:34.289Z,94.32
2017-12-25T08:06:01.868Z,95.75
2017-12-25T08:08:28.770Z,92.57
2017-12-25T08:10:55.513Z,91.85
2017-12-25T08:13:21.959Z,89.97
2017-12-25T08:15:49.768Z,93.40
2017-12-25T08:18:16.967Z,90.05
2017-12-25T08:20:44.356Z,90.40
2017-12-25T08:23:11.391Z,92.30
2017-12-25T08:25:37.623Z,87.35
2017-12-25T08:28:03.854Z,91.15
2017-12-25T08:30:30.082Z,92.18
2017-12-25T08:32:56.388Z,89.82
2017-12-25T08:35:23.356Z,88.95
2017-12-25T08:37:49.589Z,89.85
2017-12-25T08:40:15.881Z,181.60
2017-12-25T08:42:42.830Z,237.32
2017-12-25T08:45:09.897Z,93.97
2017-12-25T08:47:36.142Z,91.68
2017-12-25T08:50:02.375Z,89.25
2017-12-25T08:52:28.594Z,94.50
2017-12-25T08:54:54.833Z,92.20
2017-12-25T08:57:21.047Z,89.45
2017-12-25T08:59:47.977Z,93.90
2017-12-25T09:02:15.721Z,88.60
2017-12-25T09:04:43.498Z,91.20
2017-12-25T09:07:09.725Z,89.25
2017-12-25T09:09:36.699Z,90.43
2017-12-25T09:12:03.007Z,92.32
2017-12-25T09:14:29.991Z,95.30
2017-12-25T09:16:56.964Z,92.40
2017-12-25T09:19:23.213Z,92.75
2017-12-25T09:21:50.784Z,88.50
2017-12-25T09:24:17.764Z,91.32
2017-12-25T09:26:44.522Z,91.53
2017-12-25T09:29:12.682Z,88.60
2017-12-25T09:31:39.986Z,89.30
2017-12-25T09:34:07.328Z,91.95
2017-12-25T09:36:34.320Z,89.97
2017-12-25T09:39:00.657Z,87.62
2017-12-25T09:41:26.926Z,90.43
2017-12-25T09:43:53.223Z,91.12
2017-12-25T09:46:19.451Z,91.93
2017-12-25T09:48:45.771Z,90.22
2017-12-25T09:51:11.975Z,90.35
2017-12-25T09:53:38.202Z,88.40
2017-12-25T09:56:04.730Z,89.18
2017-12-25T09:58:31.032Z,88.62
2017-12-25T10:00:58.256Z,88.10
2017-12-25T10:03:25.096Z,182.88
2017-12-25T10:05:52.384Z,236.18
2017-12-25T10:08:18.678Z,260.58
2017-12-25T10:10:44.915Z,96.18
2017-12-25T10:13:12.163Z,93.68
2017-12-25T10:15:38.699Z,216.85
2017-12-25T10:18:06.244Z,94.22
2017-12-25T10:20:32.444Z,215.18
2017-12-25T10:22:59.305Z,295.42
2017-12-25T10:25:25.773Z,94.07
2017-12-25T10:27:53.205Z,92.93
2017-12-25T10:30:20.255Z,185.43
2017-12-25T10:32:46.531Z,95.32
2017-12-25T10:35:14.112Z,92.18
2017-12-25T10:37:40.364Z,92.57
2017-12-25T10:40:07.127Z,89.05
2017-12-25T10:42:34.617Z,89.62
2017-12-25T10:45:01.693Z,91.53
2017-12-25T10:47:27.920Z,90.60
2017-12-25T10:49:55.140Z,89.35
2017-12-25T10:52:22.630Z,88.60
2017-12-25T10:54:48.903Z,88.78
2017-12-25T10:57:16.318Z,177.68
2017-12-25T10:59:42.729Z,236.10
2017-12-25T11:02:09.935Z,94.45
2017-12-25T11:04:37.083Z,90.43
2017-12-25T11:07:04.084Z,197.37
2017-12-25T11:09:31.354Z,99.75
2017-12-25T11:11:57.569Z,208.40
2017-12-25T11:14:24.021Z,242.00
2017-12-25T11:16:50.264Z,278.98
2017-12-25T11:19:16.555Z,266.73
2017-12-25T11:21:43.594Z,301.67
2017-12-25T11:24:11.385Z,251.45
2017-12-25T11:26:38.413Z,94.55
2017-12-25T11:29:04.650Z,217.23
2017-12-25T11:31:31.274Z,275.95
2017-12-25T11:33:58.427Z,280.58
2017-12-25T11:36:25.291Z,303.37
2017-12-25T11:38:51.760Z,295.02
2017-12-25T11:41:19.328Z,302.63
2017-12-25T11:43:46.517Z,315.30
2017-12-25T11:46:13.761Z,311.85
2017-12-25T11:48:40.881Z,314.15
2017-12-25T11:51:08.513Z,312.08
2017-12-25T11:53:34.745Z,303.37
2017-12-25T11:56:01.599Z,99.53
2017-12-25T11:58:28.100Z,264.95
2017-12-25T12:00:55.360Z,329.92
2017-12-25T12:03:23.102Z,313.27
2017-12-25T12:05:50.118Z,328.95
2017-12-25T12:08:17.090Z,325.23
2017-12-25T12:10:43.506Z,298.65
2017-12-25T12:13:10.573Z,307.50
2017-12-25T12:15:36.791Z,301.92
2017-12-25T12:18:03.029Z,101.43
2017-12-25T12:20:29.349Z,95.35
2017-12-25T12:22:55.573Z,243.07
2017-12-25T12:25:21.823Z,99.85
2017-12-25T12:27:48.599Z,256.60
2017-12-25T12:30:14.858Z,280.98
2017-12-25T12:32:41.963Z,291.12
2017-12-25T12:35:08.757Z,297.83
2017-12-25T12:37:35.422Z,307.67
2017-12-25T12:40:02.919Z,319.02
2017-12-25T12:42:30.182Z,99.35
2017-12-25T12:44:57.605Z,253.15
2017-12-25T12:47:25.931Z,97.62
2017-12-25T12:49:53.043Z,256.27
2017-12-25T12:52:20.242Z,310.38
2017-12-25T12:54:46.487Z,277.33
2017-12-25T12:57:12.829Z,99.62
2017-12-25T12:59:39.078Z,93.32
2017-12-25T13:02:05.790Z,90.65
2017-12-25T13:04:33.658Z,94.15
2017-12-25T13:07:00.522Z,199.23
2017-12-25T13:09:26.763Z,93.90
2017-12-25T13:11:53.278Z,241.60
2017-12-25T13:14:20.268Z,94.60
2017-12-25T13:16:47.881Z,214.00
2017-12-25T13:19:14.162Z,96.18
2017-12-25T13:21:41.084Z,200.73
2017-12-25T13:24:07.373Z,98.57
2017-12-25T13:26:34.089Z,206.43
2017-12-25T13:29:01.319Z,277.65
2017-12-25T13:31:28.298Z,97.95
2017-12-25T13:33:55.500Z,279.20
2017-12-25T13:36:21.718Z,281.02
2017-12-25T13:38:48.565Z,292.65
2017-12-25T13:41:16.678Z,278.55
2017-12-25T13:43:43.471Z,100.32
2017-12-25T13:46:10.161Z,96.93
2017-12-25T13:48:36.980Z,253.70
2017-12-25T13:51:04.079Z,280.35
2017-12-25T13:53:31.704Z,303.67
2017-12-25T13:55:57.932Z,292.50
2017-12-25T13:58:24.771Z,304.73
2017-12-25T14:00:51.046Z,356.77
2017-12-25T14:03:17.781Z,297.27
2017-12-25T14:05:45.001Z,98.87
2017-12-25T14:08:11.927Z,14.60
2017-12-25T14:10:38.913Z,14.30
2017-12-25T14:13:05.112Z,13.25
2017-12-25T14:15:31.345Z,12.50
2017-12-25T14:17:57.877Z,14.38
2017-12-25T14:20:25.271Z,12.27
2017-12-25T14:22:53.044Z,13.40
2017-12-25T14:25:19.891Z,13.15
2017-12-25T14:27:46.630Z,13.10
2017-12-25T14:30:12.879Z,14.25
2017-12-25T14:32:40.459Z,12.57
2017-12-25T14:35:06.690Z,13.50
2017-12-25T14:37:32.984Z,13.55
2017-12-25T14:39:59.847Z,14.25
2017-12-25T14:42:27.003Z,12.40
2017-12-25T14:44:53.420Z,12.25
2017-12-25T14:47:21.189Z,12.88
2017-12-25T14:52:21.536Z,14.60
2017-12-25T14:54:48.491Z,14.02
2017-12-25T14:57:15.431Z,13.50
2017-12-25T14:59:42.475Z,14.85
2017-12-25T15:02:09.964Z,13.80
2017-12-25T15:04:36.539Z,14.07
2017-12-25T15:07:03.722Z,13.73
2017-12-25T15:09:31.944Z,12.13
2017-12-25T15:11:59.629Z,15.48
2017-12-25T15:14:27.134Z,14.30
2017-12-25T15:16:54.790Z,14.18
2017-12-25T15:21:56.067Z,11.95
2017-12-25T15:24:22.366Z,13.82
2017-12-25T15:26:49.396Z,11.82
2017-12-25T15:29:16.378Z,12.68
2017-12-25T15:31:42.726Z,12.98
2017-12-25T15:34:09.850Z,13.65
2017-12-25T15:36:36.676Z,12.88
2017-12-25T15:39:04.231Z,12.35
2017-12-25T15:41:31.220Z,10.05
2017-12-25T15:43:57.560Z,12.80
2017-12-25T15:46:24.543Z,12.00
2017-12-25T15:48:50.805Z,14.93
2017-12-25T15:51:17.034Z,16.37
2017-12-25T15:53:43.285Z,17.10
2017-12-25T15:56:09.521Z,15.15
2017-12-25T15:58:36.755Z,11.88
2017-12-25T16:01:03.553Z,13.20
2017-12-25T16:03:30.531Z,16.80
2017-12-25T16:05:57.176Z,19.15
2017-12-25T16:08:24.222Z,18.42
2017-12-25T16:10:50.488Z,18.83
2017-12-25T16:13:17.232Z,16.55
2017-12-25T16:15:43.975Z,18.27
2017-12-25T16:18:10.600Z,18.33
2017-12-25T16:20:37.355Z,25.85
2017-12-25T16:23:04.323Z,22.50
2017-12-25T16:25:31.447Z,35.58
2017-12-25T16:27:58.417Z,27.52
2017-12-25T16:30:25.575Z,27.05
2017-12-25T16:32:52.736Z,24.87
2017-12-25T16:35:18.960Z,23.58
2017-12-25T16:37:45.215Z,24.00
2017-12-25T16:40:11.415Z,23.30
2017-12-25T16:42:38.438Z,19.30
2017-12-25T16:45:06.651Z,20.73
2017-12-25T16:47:33.298Z,24.08
2017-12-25T16:50:00.331Z,21.60
2017-12-25T16:52:26.679Z,21.33
2017-12-25T16:54:54.402Z,15.73
2017-12-25T16:57:21.992Z,18.65
2017-12-25T16:59:48.553Z,21.58
2017-12-25T17:02:15.511Z,17.83
2017-12-25T17:14:27.586Z,22.70
2017-12-25T17:16:54.667Z,25.80
2017-12-25T17:19:20.891Z,21.80
2017-12-25T17:21:47.143Z,93.60
2017-12-25T17:24:13.919Z,178.53
2017-12-25T17:26:40.714Z,207.65
2017-12-25T17:29:07.692Z,223.33
2017-12-25T17:31:34.821Z,260.00
2017-12-25T17:34:01.661Z,239.90
2017-12-25T17:36:29.431Z,235.82
2017-12-25T17:38:55.680Z,235.55
2017-12-25T17:41:22.031Z,105.68
2017-12-25T17:43:49.880Z,177.90
2017-12-25T17:46:16.962Z,236.45
2017-12-25T17:48:43.195Z,265.00
2017-12-25T17:51:09.421Z,229.82
2017-12-25T17:53:35.934Z,24.25
2017-12-25T17:56:03.026Z,21.08
2017-12-25T17:58:29.718Z,27.25
2017-12-25T18:00:56.847Z,28.08
2017-12-25T18:03:24.558Z,18.25
2017-12-25T18:05:51.809Z,18.62
2017-12-25T18:08:18.352Z,18.98
2017-12-25T18:10:45.418Z,18.17
2017-12-25T18:13:11.647Z,17.15
2017-12-25T18:15:38.081Z,15.25
2017-12-25T18:18:04.953Z,14.77
2017-12-25T18:20:31.125Z,14.02
2017-12-25T18:22:57.938Z,17.70
2017-12-25T18:25:25.055Z,16.15
2017-12-25T18:27:51.359Z,20.48
2017-12-25T18:30:17.819Z,18.12
2017-12-25T18:32:44.997Z,20.55
2017-12-25T18:35:12.099Z,21.65
2017-12-25T18:37:38.976Z,20.27
2017-12-25T18:40:05.966Z,17.65
2017-12-25T18:42:33.063Z,22.52
2017-12-25T18:45:00.061Z,17.15
2017-12-25T18:47:26.296Z,19.90
2017-12-25T18:49:53.162Z,22.13
2017-12-25T18:52:19.374Z,20.98
2017-12-25T18:54:46.029Z,20.83
2017-12-25T18:57:13.067Z,26.30
2017-12-25T18:59:39.623Z,22.98
2017-12-25T19:02:07.223Z,27.10
2017-12-25T19:04:35.491Z,28.17
2017-12-25T19:07:02.306Z,26.52
2017-12-25T19:09:29.124Z,32.28
2017-12-25T19:11:55.387Z,27.37
2017-12-25T19:14:22.370Z,25.40
2017-12-25T19:16:49.397Z,102.70
2017-12-25T19:19:16.366Z,184.30
2017-12-25T19:21:42.666Z,195.40
2017-12-25T19:24:10.417Z,212.60
2017-12-25T19:26:37.422Z,225.20
2017-12-25T19:29:05.408Z,226.07
2017-12-25T19:31:31.623Z,207.68
2017-12-25T19:33:58.023Z,236.30
2017-12-25T19:36:25.177Z,221.73
2017-12-25T19:46:12.152Z,220.70
2017-12-25T19:48:38.386Z,230.90
2017-12-25T19:51:05.186Z,228.65
2017-12-25T19:58:25.574Z,232.80
